sensor_id;sensor_type;location;lat;lon;timestamp;P1;durP1;ratioP1;P2;durP2;ratioP2
67278;SDS011;54193;53.746;10.058;2022-10-26T00:00:05;22.55;;;8.65;;
67278;SDS011;54193;53.746;10.058;2022-10-26T00:02:55;22.00;;;8.63;;
67278;SDS011;54193;53.746;10.058;2022-10-26T00:05:41;23.45;;;8.38;;
67278;SDS011;54193;53.746;10.058;2022-10-26T00:08:27;21.70;;;8.60;;
67278;SDS011;54193;53.746;10.058;2022-10-26T00:11:12;25.13;;;7.95;;
67278;SDS011;54193;53.746;10.058;2022-10-26T00:13:58;25.75;;;8.73;;
67278;SDS011;54193;53.746;10.058;2022-10-26T00:16:44;29.23;;;9.00;;
67278;SDS011;54193;53.746;10.058;2022-10-26T00:19:31;23.55;;;8.85;;
67278;SDS011;54193;53.746;10.058;2022-10-26T00:22:18;23.50;;;8.18;;
67278;SDS011;54193;53.746;10.058;2022-10-26T00:25:04;23.95;;;7.65;;
67278;SDS011;54193;53.746;10.058;2022-10-26T00:27:51;27.67;;;7.90;;
67278;SDS011;54193;53.746;10.058;2022-10-26T00:30:38;23.20;;;7.57;;
67278;SDS011;54193;53.746;10.058;2022-10-26T00:33:24;20.27;;;7.20;;
67278;SDS011;54193;53.746;10.058;2022-10-26T00:36:10;24.83;;;8.00;;
67278;SDS011;54193;53.746;10.058;2022-10-26T00:38:58;22.13;;;7.90;;
67278;SDS011;54193;53.746;10.058;2022-10-26T00:41:43;23.27;;;8.30;;
67278;SDS011;54193;53.746;10.058;2022-10-26T00:47:35;23.90;;;8.60;;
67278;SDS011;54193;53.746;10.058;2022-10-26T00:50:25;28.02;;;8.90;;
67278;SDS011;54193;53.746;10.058;2022-10-26T00:53:16;23.25;;;8.07;;
67278;SDS011;54193;53.746;10.058;2022-10-26T00:56:02;25.40;;;8.52;;
67278;SDS011;54193;53.746;10.058;2022-10-26T00:58:48;22.10;;;8.63;;
67278;SDS011;54193;53.746;10.058;2022-10-26T01:01:35;26.48;;;8.93;;
67278;SDS011;54193;53.746;10.058;2022-10-26T01:04:23;31.13;;;9.95;;
67278;SDS011;54193;53.746;10.058;2022-10-26T01:07:09;29.33;;;9.45;;
67278;SDS011;54193;53.746;10.058;2022-10-26T01:09:55;28.35;;;9.18;;
67278;SDS011;54193;53.746;10.058;2022-10-26T01:12:41;24.07;;;8.33;;
67278;SDS011;54193;53.746;10.058;2022-10-26T01:15:37;25.92;;;9.43;;
67278;SDS011;54193;53.746;10.058;2022-10-26T01:27:34;26.70;;;9.50;;
67278;SDS011;54193;53.746;10.058;2022-10-26T01:30:38;24.52;;;8.75;;
67278;SDS011;54193;53.746;10.058;2022-10-26T01:33:42;24.75;;;9.27;;
67278;SDS011;54193;53.746;10.058;2022-10-26T01:36:38;26.95;;;9.00;;
67278;SDS011;54193;53.746;10.058;2022-10-26T01:42:18;25.60;;;8.13;;
67278;SDS011;54193;53.746;10.058;2022-10-26T01:45:07;29.38;;;8.77;;
67278;SDS011;54193;53.746;10.058;2022-10-26T01:47:55;21.42;;;8.27;;
67278;SDS011;54193;53.746;10.058;2022-10-26T01:50:44;23.65;;;9.48;;
67278;SDS011;54193;53.746;10.058;2022-10-26T01:53:33;23.00;;;9.25;;
67278;SDS011;54193;53.746;10.058;2022-10-26T01:56:28;25.77;;;9.87;;
67278;SDS011;54193;53.746;10.058;2022-10-26T02:08:56;26.23;;;9.98;;
67278;SDS011;54193;53.746;10.058;2022-10-26T02:11:49;32.43;;;10.00;;
67278;SDS011;54193;53.746;10.058;2022-10-26T02:14:44;29.00;;;10.02;;
67278;SDS011;54193;53.746;10.058;2022-10-26T02:17:39;28.92;;;10.63;;
67278;SDS011;54193;53.746;10.058;2022-10-26T02:20:35;29.08;;;10.05;;
67278;SDS011;54193;53.746;10.058;2022-10-26T02:23:28;28.65;;;10.52;;
67278;SDS011;54193;53.746;10.058;2022-10-26T02:26:19;27.83;;;9.93;;
67278;SDS011;54193;53.746;10.058;2022-10-26T02:29:08;29.20;;;10.10;;
67278;SDS011;54193;53.746;10.058;2022-10-26T02:31:57;27.75;;;9.65;;
67278;SDS011;54193;53.746;10.058;2022-10-26T02:34:44;32.20;;;11.32;;
67278;SDS011;54193;53.746;10.058;2022-10-26T02:37:32;30.33;;;10.23;;
67278;SDS011;54193;53.746;10.058;2022-10-26T02:40:21;28.53;;;9.80;;
67278;SDS011;54193;53.746;10.058;2022-10-26T02:43:11;24.88;;;9.73;;
67278;SDS011;54193;53.746;10.058;2022-10-26T02:46:01;31.30;;;10.63;;
67278;SDS011;54193;53.746;10.058;2022-10-26T02:48:51;27.55;;;9.77;;
67278;SDS011;54193;53.746;10.058;2022-10-26T02:51:51;33.10;;;9.85;;
67278;SDS011;54193;53.746;10.058;2022-10-26T02:54:52;29.67;;;10.13;;
67278;SDS011;54193;53.746;10.058;2022-10-26T02:57:44;28.08;;;10.20;;
67278;SDS011;54193;53.746;10.058;2022-10-26T03:00:34;28.77;;;10.57;;
67278;SDS011;54193;53.746;10.058;2022-10-26T03:03:20;28.63;;;10.73;;
67278;SDS011;54193;53.746;10.058;2022-10-26T03:06:06;30.90;;;10.98;;
67278;SDS011;54193;53.746;10.058;2022-10-26T03:08:52;26.83;;;10.07;;
67278;SDS011;54193;53.746;10.058;2022-10-26T03:11:38;30.30;;;10.00;;
67278;SDS011;54193;53.746;10.058;2022-10-26T03:14:23;29.27;;;10.25;;
67278;SDS011;54193;53.746;10.058;2022-10-26T03:17:09;34.10;;;10.35;;
67278;SDS011;54193;53.746;10.058;2022-10-26T03:19:55;32.55;;;10.48;;
67278;SDS011;54193;53.746;10.058;2022-10-26T03:22:40;31.47;;;9.90;;
67278;SDS011;54193;53.746;10.058;2022-10-26T03:25:26;30.73;;;10.60;;
67278;SDS011;54193;53.746;10.058;2022-10-26T03:28:12;33.97;;;11.25;;
67278;SDS011;54193;53.746;10.058;2022-10-26T03:30:58;29.20;;;10.40;;
67278;SDS011;54193;53.746;10.058;2022-10-26T03:33:44;32.63;;;10.55;;
67278;SDS011;54193;53.746;10.058;2022-10-26T03:36:29;27.20;;;10.50;;
67278;SDS011;54193;53.746;10.058;2022-10-26T03:39:15;30.13;;;10.45;;
67278;SDS011;54193;53.746;10.058;2022-10-26T03:42:00;36.92;;;11.07;;
67278;SDS011;54193;53.746;10.058;2022-10-26T03:44:46;32.72;;;11.07;;
67278;SDS011;54193;53.746;10.058;2022-10-26T03:47:32;31.98;;;10.55;;
67278;SDS011;54193;53.746;10.058;2022-10-26T03:50:19;29.93;;;10.47;;
67278;SDS011;54193;53.746;10.058;2022-10-26T03:53:05;30.33;;;10.48;;
67278;SDS011;54193;53.746;10.058;2022-10-26T03:55:51;30.33;;;10.13;;
67278;SDS011;54193;53.746;10.058;2022-10-26T03:58:37;30.23;;;10.65;;
67278;SDS011;54193;53.746;10.058;2022-10-26T04:01:22;34.70;;;12.15;;
67278;SDS011;54193;53.746;10.058;2022-10-26T04:04:08;32.10;;;10.67;;
67278;SDS011;54193;53.746;10.058;2022-10-26T04:06:54;34.92;;;11.70;;
67278;SDS011;54193;53.746;10.058;2022-10-26T04:09:39;36.10;;;12.20;;
67278;SDS011;54193;53.746;10.058;2022-10-26T04:12:25;37.35;;;11.32;;
67278;SDS011;54193;53.746;10.058;2022-10-26T04:15:10;37.83;;;11.85;;
67278;SDS011;54193;53.746;10.058;2022-10-26T04:17:57;38.37;;;12.03;;
67278;SDS011;54193;53.746;10.058;2022-10-26T04:20:44;37.03;;;11.50;;
67278;SDS011;54193;53.746;10.058;2022-10-26T04:23:30;33.75;;;11.63;;
67278;SDS011;54193;53.746;10.058;2022-10-26T04:26:15;34.10;;;11.23;;
67278;SDS011;54193;53.746;10.058;2022-10-26T04:29:01;34.85;;;11.25;;
67278;SDS011;54193;53.746;10.058;2022-10-26T04:31:50;35.87;;;11.50;;
67278;SDS011;54193;53.746;10.058;2022-10-26T04:34:36;30.30;;;10.30;;
67278;SDS011;54193;53.746;10.058;2022-10-26T04:37:22;31.45;;;10.50;;
67278;SDS011;54193;53.746;10.058;2022-10-26T04:40:07;35.03;;;11.55;;
67278;SDS011;54193;53.746;10.058;2022-10-26T04:42:53;34.45;;;10.18;;
67278;SDS011;54193;53.746;10.058;2022-10-26T04:45:39;37.40;;;11.57;;
67278;SDS011;54193;53.746;10.058;2022-10-26T04:48:25;34.90;;;10.77;;
67278;SDS011;54193;53.746;10.058;2022-10-26T04:51:10;31.60;;;11.35;;
67278;SDS011;54193;53.746;10.058;2022-10-26T04:53:56;33.10;;;11.00;;
67278;SDS011;54193;53.746;10.058;2022-10-26T04:56:42;33.97;;;10.20;;
67278;SDS011;54193;53.746;10.058;2022-10-26T04:59:28;30.47;;;10.83;;
67278;SDS011;54193;53.746;10.058;2022-10-26T05:02:13;37.33;;;10.60;;
67278;SDS011;54193;53.746;10.058;2022-10-26T05:04:59;31.98;;;10.77;;
67278;SDS011;54193;53.746;10.058;2022-10-26T05:07:52;34.38;;;10.52;;
67278;SDS011;54193;53.746;10.058;2022-10-26T05:10:38;34.75;;;10.60;;
67278;SDS011;54193;53.746;10.058;2022-10-26T05:13:24;34.97;;;11.33;;
67278;SDS011;54193;53.746;10.058;2022-10-26T05:16:09;38.15;;;11.00;;
67278;SDS011;54193;53.746;10.058;2022-10-26T05:18:55;38.33;;;11.65;;
67278;SDS011;54193;53.746;10.058;2022-10-26T05:21:40;35.55;;;10.68;;
67278;SDS011;54193;53.746;10.058;2022-10-26T05:24:26;36.80;;;11.98;;
67278;SDS011;54193;53.746;10.058;2022-10-26T05:27:12;36.47;;;11.33;;
67278;SDS011;54193;53.746;10.058;2022-10-26T05:29:57;33.42;;;11.18;;
67278;SDS011;54193;53.746;10.058;2022-10-26T05:32:43;42.95;;;12.60;;
67278;SDS011;54193;53.746;10.058;2022-10-26T05:35:29;33.65;;;11.60;;
67278;SDS011;54193;53.746;10.058;2022-10-26T05:38:15;31.52;;;10.75;;
67278;SDS011;54193;53.746;10.058;2022-10-26T05:41:01;33.23;;;10.27;;
67278;SDS011;54193;53.746;10.058;2022-10-26T05:43:47;32.97;;;10.18;;
67278;SDS011;54193;53.746;10.058;2022-10-26T05:46:33;34.55;;;10.13;;
67278;SDS011;54193;53.746;10.058;2022-10-26T05:49:18;36.83;;;11.13;;
67278;SDS011;54193;53.746;10.058;2022-10-26T05:52:04;32.30;;;10.32;;
67278;SDS011;54193;53.746;10.058;2022-10-26T05:54:50;35.47;;;10.37;;
67278;SDS011;54193;53.746;10.058;2022-10-26T05:57:36;34.55;;;10.90;;
67278;SDS011;54193;53.746;10.058;2022-10-26T06:00:24;39.40;;;11.60;;
67278;SDS011;54193;53.746;10.058;2022-10-26T06:06:24;35.92;;;11.20;;
67278;SDS011;54193;53.746;10.058;2022-10-26T06:09:21;34.03;;;10.83;;
67278;SDS011;54193;53.746;10.058;2022-10-26T06:12:08;38.75;;;11.88;;
67278;SDS011;54193;53.746;10.058;2022-10-26T06:14:55;35.28;;;11.43;;
67278;SDS011;54193;53.746;10.058;2022-10-26T06:17:56;34.28;;;11.35;;
67278;SDS011;54193;53.746;10.058;2022-10-26T06:23:43;34.20;;;10.30;;
67278;SDS011;54193;53.746;10.058;2022-10-26T06:29:43;29.80;;;9.15;;
67278;SDS011;54193;53.746;10.058;2022-10-26T06:32:38;28.65;;;9.55;;
67278;SDS011;54193;53.746;10.058;2022-10-26T06:38:31;30.50;;;10.23;;
67278;SDS011;54193;53.746;10.058;2022-10-26T06:41:19;23.83;;;8.70;;
67278;SDS011;54193;53.746;10.058;2022-10-26T06:44:07;27.00;;;9.15;;
67278;SDS011;54193;53.746;10.058;2022-10-26T06:47:09;29.45;;;9.90;;
67278;SDS011;54193;53.746;10.058;2022-10-26T06:53:22;27.93;;;9.23;;
67278;SDS011;54193;53.746;10.058;2022-10-26T06:56:20;28.23;;;9.32;;
67278;SDS011;54193;53.746;10.058;2022-10-26T06:59:12;30.48;;;10.43;;
67278;SDS011;54193;53.746;10.058;2022-10-26T07:02:02;33.97;;;10.27;;
67278;SDS011;54193;53.746;10.058;2022-10-26T07:04:47;36.13;;;11.25;;
67278;SDS011;54193;53.746;10.058;2022-10-26T07:07:33;34.93;;;10.87;;
67278;SDS011;54193;53.746;10.058;2022-10-26T07:10:21;40.08;;;11.13;;
67278;SDS011;54193;53.746;10.058;2022-10-26T07:13:07;31.95;;;9.98;;
67278;SDS011;54193;53.746;10.058;2022-10-26T07:15:54;34.25;;;10.48;;
67278;SDS011;54193;53.746;10.058;2022-10-26T07:18:40;37.72;;;9.45;;
67278;SDS011;54193;53.746;10.058;2022-10-26T07:21:25;36.27;;;10.50;;
67278;SDS011;54193;53.746;10.058;2022-10-26T07:24:12;33.28;;;9.98;;
67278;SDS011;54193;53.746;10.058;2022-10-26T07:26:57;36.47;;;11.52;;
67278;SDS011;54193;53.746;10.058;2022-10-26T07:29:43;37.67;;;10.77;;
67278;SDS011;54193;53.746;10.058;2022-10-26T07:32:29;38.70;;;10.50;;
67278;SDS011;54193;53.746;10.058;2022-10-26T07:35:14;36.50;;;11.03;;
67278;SDS011;54193;53.746;10.058;2022-10-26T07:38:00;38.72;;;11.63;;
67278;SDS011;54193;53.746;10.058;2022-10-26T07:40:46;36.83;;;12.65;;
67278;SDS011;54193;53.746;10.058;2022-10-26T07:43:33;33.13;;;10.80;;
67278;SDS011;54193;53.746;10.058;2022-10-26T07:46:19;28.58;;;10.07;;
67278;SDS011;54193;53.746;10.058;2022-10-26T07:49:04;32.60;;;10.87;;
67278;SDS011;54193;53.746;10.058;2022-10-26T07:51:50;27.48;;;10.35;;
67278;SDS011;54193;53.746;10.058;2022-10-26T07:54:35;23.65;;;8.60;;
67278;SDS011;54193;53.746;10.058;2022-10-26T07:57:21;23.92;;;9.18;;
67278;SDS011;54193;53.746;10.058;2022-10-26T08:00:07;13.13;;;5.85;;
67278;SDS011;54193;53.746;10.058;2022-10-26T08:02:54;18.20;;;6.93;;
67278;SDS011;54193;53.746;10.058;2022-10-26T08:05:40;20.38;;;7.60;;
67278;SDS011;54193;53.746;10.058;2022-10-26T08:08:25;20.60;;;8.18;;
67278;SDS011;54193;53.746;10.058;2022-10-26T08:11:11;22.17;;;8.48;;
67278;SDS011;54193;53.746;10.058;2022-10-26T08:13:57;16.05;;;6.80;;
67278;SDS011;54193;53.746;10.058;2022-10-26T08:16:42;13.37;;;5.03;;
67278;SDS011;54193;53.746;10.058;2022-10-26T08:19:28;17.58;;;6.95;;
67278;SDS011;54193;53.746;10.058;2022-10-26T08:22:14;16.02;;;7.38;;
67278;SDS011;54193;53.746;10.058;2022-10-26T08:25:00;18.27;;;7.20;;
67278;SDS011;54193;53.746;10.058;2022-10-26T08:27:45;16.27;;;6.55;;
67278;SDS011;54193;53.746;10.058;2022-10-26T08:30:31;16.67;;;7.57;;
67278;SDS011;54193;53.746;10.058;2022-10-26T08:33:17;17.00;;;7.40;;
67278;SDS011;54193;53.746;10.058;2022-10-26T08:36:03;13.45;;;6.30;;
67278;SDS011;54193;53.746;10.058;2022-10-26T08:38:49;14.35;;;6.47;;
67278;SDS011;54193;53.746;10.058;2022-10-26T08:41:37;8.02;;;3.28;;
67278;SDS011;54193;53.746;10.058;2022-10-26T08:47:31;12.60;;;5.07;;
67278;SDS011;54193;53.746;10.058;2022-10-26T08:50:26;9.75;;;4.25;;
67278;SDS011;54193;53.746;10.058;2022-10-26T08:56:17;12.07;;;5.90;;
67278;SDS011;54193;53.746;10.058;2022-10-26T08:59:54;11.30;;;3.77;;
67278;SDS011;54193;53.746;10.058;2022-10-26T09:02:12;10.07;;;4.15;;
67278;SDS011;54193;53.746;10.058;2022-10-26T09:05:00;13.25;;;5.50;;
67278;SDS011;54193;53.746;10.058;2022-10-26T09:07:57;11.13;;;4.60;;
67278;SDS011;54193;53.746;10.058;2022-10-26T09:14:01;11.27;;;5.03;;
67278;SDS011;54193;53.746;10.058;2022-10-26T09:25:52;12.38;;;5.07;;
67278;SDS011;54193;53.746;10.058;2022-10-26T09:28:44;9.30;;;4.27;;
67278;SDS011;54193;53.746;10.058;2022-10-26T09:31:34;9.75;;;4.70;;
67278;SDS011;54193;53.746;10.058;2022-10-26T09:34:26;6.10;;;3.50;;
67278;SDS011;54193;53.746;10.058;2022-10-26T09:37:20;8.18;;;3.50;;
67278;SDS011;54193;53.746;10.058;2022-10-26T09:43:17;7.40;;;3.63;;
67278;SDS011;54193;53.746;10.058;2022-10-26T09:46:05;9.50;;;4.55;;
67278;SDS011;54193;53.746;10.058;2022-10-26T09:48:51;13.10;;;5.18;;
67278;SDS011;54193;53.746;10.058;2022-10-26T09:51:40;12.43;;;4.90;;
67278;SDS011;54193;53.746;10.058;2022-10-26T09:54:28;11.65;;;4.07;;
67278;SDS011;54193;53.746;10.058;2022-10-26T09:57:14;7.87;;;3.30;;
67278;SDS011;54193;53.746;10.058;2022-10-26T10:00:02;9.75;;;4.28;;
67278;SDS011;54193;53.746;10.058;2022-10-26T10:02:55;9.75;;;4.55;;
67278;SDS011;54193;53.746;10.058;2022-10-26T10:05:41;11.38;;;4.88;;
67278;SDS011;54193;53.746;10.058;2022-10-26T10:08:27;8.70;;;3.80;;
67278;SDS011;54193;53.746;10.058;2022-10-26T10:11:13;9.47;;;3.63;;
67278;SDS011;54193;53.746;10.058;2022-10-26T10:14:01;10.10;;;4.80;;
67278;SDS011;54193;53.746;10.058;2022-10-26T10:16:56;8.70;;;3.65;;
67278;SDS011;54193;53.746;10.058;2022-10-26T10:19:47;10.55;;;4.00;;
67278;SDS011;54193;53.746;10.058;2022-10-26T10:22:33;8.15;;;3.72;;
67278;SDS011;54193;53.746;10.058;2022-10-26T10:25:30;10.87;;;4.20;;
67278;SDS011;54193;53.746;10.058;2022-10-26T10:28:21;10.10;;;4.05;;
67278;SDS011;54193;53.746;10.058;2022-10-26T10:31:42;9.02;;;3.10;;
67278;SDS011;54193;53.746;10.058;2022-10-26T10:34:20;5.90;;;2.70;;
67278;SDS011;54193;53.746;10.058;2022-10-26T10:37:12;9.70;;;3.10;;
67278;SDS011;54193;53.746;10.058;2022-10-26T10:40:14;8.07;;;2.93;;
67278;SDS011;54193;53.746;10.058;2022-10-26T10:43:05;7.63;;;2.95;;
67278;SDS011;54193;53.746;10.058;2022-10-26T10:45:57;7.28;;;2.38;;
67278;SDS011;54193;53.746;10.058;2022-10-26T10:48:47;7.45;;;2.22;;
67278;SDS011;54193;53.746;10.058;2022-10-26T10:51:37;4.80;;;2.10;;
67278;SDS011;54193;53.746;10.058;2022-10-26T10:54:34;7.07;;;2.67;;
67278;SDS011;54193;53.746;10.058;2022-10-26T11:00:14;3.97;;;2.03;;
67278;SDS011;54193;53.746;10.058;2022-10-26T11:06:07;6.60;;;2.70;;
67278;SDS011;54193;53.746;10.058;2022-10-26T11:09:04;5.40;;;1.90;;
67278;SDS011;54193;53.746;10.058;2022-10-26T11:12:00;4.70;;;1.92;;
67278;SDS011;54193;53.746;10.058;2022-10-26T11:15:18;5.80;;;2.28;;
67278;SDS011;54193;53.746;10.058;2022-10-26T11:18:11;6.13;;;2.05;;
67278;SDS011;54193;53.746;10.058;2022-10-26T11:21:25;8.40;;;2.75;;
67278;SDS011;54193;53.746;10.058;2022-10-26T11:24:15;8.10;;;2.60;;
67278;SDS011;54193;53.746;10.058;2022-10-26T11:27:17;6.05;;;2.33;;
67278;SDS011;54193;53.746;10.058;2022-10-26T11:30:08;5.03;;;1.90;;
67278;SDS011;54193;53.746;10.058;2022-10-26T11:33:03;6.50;;;2.42;;
67278;SDS011;54193;53.746;10.058;2022-10-26T11:35:57;7.78;;;2.60;;
67278;SDS011;54193;53.746;10.058;2022-10-26T11:38:52;5.17;;;2.00;;
67278;SDS011;54193;53.746;10.058;2022-10-26T11:41:46;6.55;;;2.40;;
67278;SDS011;54193;53.746;10.058;2022-10-26T11:44:37;4.53;;;1.95;;
67278;SDS011;54193;53.746;10.058;2022-10-26T11:47:36;7.38;;;2.00;;
67278;SDS011;54193;53.746;10.058;2022-10-26T11:50:33;5.07;;;2.45;;
67278;SDS011;54193;53.746;10.058;2022-10-26T11:53:24;5.23;;;2.00;;
67278;SDS011;54193;53.746;10.058;2022-10-26T11:56:26;6.15;;;2.30;;
67278;SDS011;54193;53.746;10.058;2022-10-26T11:59:20;7.00;;;2.35;;
67278;SDS011;54193;53.746;10.058;2022-10-26T12:02:11;7.82;;;2.35;;
67278;SDS011;54193;53.746;10.058;2022-10-26T12:05:05;4.75;;;2.03;;
67278;SDS011;54193;53.746;10.058;2022-10-26T12:08:02;4.70;;;2.07;;
67278;SDS011;54193;53.746;10.058;2022-10-26T12:11:10;5.55;;;2.33;;
67278;SDS011;54193;53.746;10.058;2022-10-26T12:14:20;6.18;;;2.72;;
67278;SDS011;54193;53.746;10.058;2022-10-26T12:17:15;7.40;;;2.47;;
67278;SDS011;54193;53.746;10.058;2022-10-26T12:22:51;4.53;;;2.30;;
67278;SDS011;54193;53.746;10.058;2022-10-26T12:25:37;5.97;;;2.40;;
67278;SDS011;54193;53.746;10.058;2022-10-26T12:37:30;7.37;;;2.33;;
67278;SDS011;54193;53.746;10.058;2022-10-26T12:48:58;6.38;;;2.80;;
67278;SDS011;54193;53.746;10.058;2022-10-26T12:51:44;7.40;;;2.43;;
67278;SDS011;54193;53.746;10.058;2022-10-26T12:57:31;5.78;;;2.60;;
67278;SDS011;54193;53.746;10.058;2022-10-26T13:00:26;7.10;;;2.40;;
67278;SDS011;54193;53.746;10.058;2022-10-26T13:09:43;5.97;;;2.25;;
67278;SDS011;54193;53.746;10.058;2022-10-26T13:12:37;5.22;;;2.55;;
67278;SDS011;54193;53.746;10.058;2022-10-26T13:15:37;6.15;;;2.50;;
67278;SDS011;54193;53.746;10.058;2022-10-26T13:18:24;5.35;;;2.70;;
67278;SDS011;54193;53.746;10.058;2022-10-26T13:21:17;5.73;;;2.43;;
67278;SDS011;54193;53.746;10.058;2022-10-26T13:24:10;5.55;;;2.50;;
67278;SDS011;54193;53.746;10.058;2022-10-26T13:32:54;5.90;;;2.97;;
67278;SDS011;54193;53.746;10.058;2022-10-26T13:35:40;5.93;;;2.60;;
67278;SDS011;54193;53.746;10.058;2022-10-26T13:38:29;6.90;;;2.88;;
67278;SDS011;54193;53.746;10.058;2022-10-26T13:41:20;6.72;;;2.60;;
67278;SDS011;54193;53.746;10.058;2022-10-26T13:44:13;6.45;;;2.70;;
67278;SDS011;54193;53.746;10.058;2022-10-26T13:50:26;7.23;;;2.70;;
67278;SDS011;54193;53.746;10.058;2022-10-26T13:56:29;5.43;;;2.80;;
67278;SDS011;54193;53.746;10.058;2022-10-26T13:59:22;6.68;;;2.97;;
67278;SDS011;54193;53.746;10.058;2022-10-26T14:02:17;6.20;;;2.90;;
67278;SDS011;54193;53.746;10.058;2022-10-26T14:05:11;5.97;;;2.97;;
67278;SDS011;54193;53.746;10.058;2022-10-26T14:07:58;7.25;;;3.10;;
67278;SDS011;54193;53.746;10.058;2022-10-26T14:10:45;6.30;;;2.80;;
67278;SDS011;54193;53.746;10.058;2022-10-26T14:13:32;5.20;;;3.08;;
67278;SDS011;54193;53.746;10.058;2022-10-26T14:16:19;8.80;;;3.47;;
67278;SDS011;54193;53.746;10.058;2022-10-26T14:19:12;7.00;;;2.43;;
67278;SDS011;54193;53.746;10.058;2022-10-26T14:22:00;4.72;;;1.92;;
67278;SDS011;54193;53.746;10.058;2022-10-26T14:24:56;5.47;;;2.78;;
67278;SDS011;54193;53.746;10.058;2022-10-26T14:27:43;6.72;;;3.05;;
67278;SDS011;54193;53.746;10.058;2022-10-26T14:30:30;7.10;;;3.00;;
67278;SDS011;54193;53.746;10.058;2022-10-26T14:33:24;6.33;;;2.70;;
67278;SDS011;54193;53.746;10.058;2022-10-26T14:36:12;8.02;;;3.00;;
67278;SDS011;54193;53.746;10.058;2022-10-26T14:39:03;7.07;;;3.10;;
67278;SDS011;54193;53.746;10.058;2022-10-26T14:41:53;6.15;;;3.20;;
67278;SDS011;54193;53.746;10.058;2022-10-26T14:44:40;7.25;;;2.63;;
67278;SDS011;54193;53.746;10.058;2022-10-26T14:47:27;8.00;;;3.10;;
67278;SDS011;54193;53.746;10.058;2022-10-26T14:50:20;6.00;;;2.50;;
67278;SDS011;54193;53.746;10.058;2022-10-26T14:53:15;7.22;;;2.88;;
67278;SDS011;54193;53.746;10.058;2022-10-26T14:56:02;5.55;;;2.40;;
67278;SDS011;54193;53.746;10.058;2022-10-26T14:58:48;6.25;;;2.80;;
67278;SDS011;54193;53.746;10.058;2022-10-26T15:01:48;5.60;;;3.03;;
67278;SDS011;54193;53.746;10.058;2022-10-26T15:04:37;6.20;;;2.88;;
67278;SDS011;54193;53.746;10.058;2022-10-26T15:07:32;7.38;;;2.85;;
67278;SDS011;54193;53.746;10.058;2022-10-26T15:13:24;6.95;;;3.20;;
67278;SDS011;54193;53.746;10.058;2022-10-26T15:16:20;9.27;;;2.90;;
67278;SDS011;54193;53.746;10.058;2022-10-26T15:19:08;6.50;;;3.00;;
67278;SDS011;54193;53.746;10.058;2022-10-26T15:21:55;8.80;;;3.25;;
67278;SDS011;54193;53.746;10.058;2022-10-26T15:24:41;6.43;;;3.35;;
67278;SDS011;54193;53.746;10.058;2022-10-26T15:27:27;7.60;;;3.15;;
67278;SDS011;54193;53.746;10.058;2022-10-26T15:30:18;6.30;;;3.20;;
67278;SDS011;54193;53.746;10.058;2022-10-26T15:33:19;8.45;;;3.58;;
67278;SDS011;54193;53.746;10.058;2022-10-26T15:36:12;9.98;;;3.78;;
67278;SDS011;54193;53.746;10.058;2022-10-26T15:39:01;8.52;;;3.60;;
67278;SDS011;54193;53.746;10.058;2022-10-26T15:41:47;7.05;;;3.50;;
67278;SDS011;54193;53.746;10.058;2022-10-26T15:44:33;7.87;;;3.70;;
67278;SDS011;54193;53.746;10.058;2022-10-26T15:47:19;6.45;;;3.40;;
67278;SDS011;54193;53.746;10.058;2022-10-26T15:50:05;9.35;;;3.47;;
67278;SDS011;54193;53.746;10.058;2022-10-26T15:52:59;9.98;;;3.42;;
67278;SDS011;54193;53.746;10.058;2022-10-26T15:55:47;7.00;;;3.47;;
67278;SDS011;54193;53.746;10.058;2022-10-26T15:58:35;7.60;;;3.47;;
67278;SDS011;54193;53.746;10.058;2022-10-26T16:01:22;6.82;;;3.42;;
67278;SDS011;54193;53.746;10.058;2022-10-26T16:04:09;8.23;;;3.70;;
67278;SDS011;54193;53.746;10.058;2022-10-26T16:06:58;9.00;;;3.90;;
67278;SDS011;54193;53.746;10.058;2022-10-26T16:09:48;7.73;;;3.17;;
67278;SDS011;54193;53.746;10.058;2022-10-26T16:12:34;7.90;;;4.00;;
67278;SDS011;54193;53.746;10.058;2022-10-26T16:15:20;7.70;;;3.53;;
67278;SDS011;54193;53.746;10.058;2022-10-26T16:18:07;9.43;;;3.70;;
67278;SDS011;54193;53.746;10.058;2022-10-26T16:20:53;8.80;;;3.60;;
67278;SDS011;54193;53.746;10.058;2022-10-26T16:23:39;8.68;;;3.95;;
67278;SDS011;54193;53.746;10.058;2022-10-26T16:26:25;8.73;;;4.28;;
67278;SDS011;54193;53.746;10.058;2022-10-26T16:29:11;9.43;;;4.40;;
67278;SDS011;54193;53.746;10.058;2022-10-26T16:31:56;7.35;;;3.58;;
67278;SDS011;54193;53.746;10.058;2022-10-26T16:34:42;10.05;;;4.15;;
67278;SDS011;54193;53.746;10.058;2022-10-26T16:37:28;12.88;;;3.80;;
67278;SDS011;54193;53.746;10.058;2022-10-26T16:40:14;8.55;;;3.78;;
67278;SDS011;54193;53.746;10.058;2022-10-26T16:43:00;8.47;;;3.90;;
67278;SDS011;54193;53.746;10.058;2022-10-26T16:45:45;8.68;;;3.60;;
67278;SDS011;54193;53.746;10.058;2022-10-26T16:48:33;9.50;;;3.60;;
67278;SDS011;54193;53.746;10.058;2022-10-26T16:51:20;5.80;;;2.88;;
67278;SDS011;54193;53.746;10.058;2022-10-26T16:54:08;6.18;;;2.90;;
67278;SDS011;54193;53.746;10.058;2022-10-26T16:56:53;7.37;;;3.20;;
67278;SDS011;54193;53.746;10.058;2022-10-26T16:59:39;7.43;;;2.63;;
67278;SDS011;54193;53.746;10.058;2022-10-26T17:02:25;7.72;;;3.67;;
67278;SDS011;54193;53.746;10.058;2022-10-26T17:05:10;8.15;;;3.20;;
67278;SDS011;54193;53.746;10.058;2022-10-26T17:07:56;7.32;;;3.17;;
67278;SDS011;54193;53.746;10.058;2022-10-26T17:10:42;8.27;;;3.40;;
67278;SDS011;54193;53.746;10.058;2022-10-26T17:13:27;6.55;;;3.40;;
67278;SDS011;54193;53.746;10.058;2022-10-26T17:16:14;8.02;;;3.65;;
67278;SDS011;54193;53.746;10.058;2022-10-26T17:19:02;7.07;;;3.65;;
67278;SDS011;54193;53.746;10.058;2022-10-26T17:21:47;9.10;;;3.70;;
67278;SDS011;54193;53.746;10.058;2022-10-26T17:24:33;8.10;;;3.50;;
67278;SDS011;54193;53.746;10.058;2022-10-26T17:27:19;7.53;;;3.60;;
67278;SDS011;54193;53.746;10.058;2022-10-26T17:30:05;7.75;;;3.65;;
67278;SDS011;54193;53.746;10.058;2022-10-26T17:32:51;10.43;;;3.80;;
67278;SDS011;54193;53.746;10.058;2022-10-26T17:35:37;8.05;;;3.65;;
67278;SDS011;54193;53.746;10.058;2022-10-26T17:38:23;8.07;;;4.10;;
67278;SDS011;54193;53.746;10.058;2022-10-26T17:41:09;12.15;;;3.97;;
67278;SDS011;54193;53.746;10.058;2022-10-26T17:43:58;8.60;;;3.97;;
67278;SDS011;54193;53.746;10.058;2022-10-26T17:46:44;8.95;;;4.10;;
67278;SDS011;54193;53.746;10.058;2022-10-26T17:49:30;9.93;;;4.18;;
67278;SDS011;54193;53.746;10.058;2022-10-26T17:52:15;10.33;;;4.20;;
67278;SDS011;54193;53.746;10.058;2022-10-26T17:55:01;9.18;;;4.25;;
67278;SDS011;54193;53.746;10.058;2022-10-26T17:57:47;9.80;;;4.57;;
67278;SDS011;54193;53.746;10.058;2022-10-26T18:00:33;9.48;;;4.32;;
67278;SDS011;54193;53.746;10.058;2022-10-26T18:03:18;10.45;;;4.05;;
67278;SDS011;54193;53.746;10.058;2022-10-26T18:06:04;10.03;;;4.50;;
67278;SDS011;54193;53.746;10.058;2022-10-26T18:08:57;8.45;;;4.45;;
67278;SDS011;54193;53.746;10.058;2022-10-26T18:11:43;8.85;;;4.28;;
67278;SDS011;54193;53.746;10.058;2022-10-26T18:14:28;10.00;;;4.20;;
67278;SDS011;54193;53.746;10.058;2022-10-26T18:17:14;10.98;;;4.90;;
67278;SDS011;54193;53.746;10.058;2022-10-26T18:20:00;10.93;;;4.40;;
67278;SDS011;54193;53.746;10.058;2022-10-26T18:22:45;11.82;;;5.25;;